Time;durP1;ratioP1;P1;durP2;ratioP2;P2;SDS_P1;SDS_P2;PMS_P1;PMS_P2;Temp;Humidity;BMP_temperature;BMP_pressure;BME280_temperature;BME280_humidity;BME280_pressure;Samples;Min_cycle;Max_cycle;Signal;HPM_P1;HPM_P2
2022/11/30 00:00:20;;;;;;;34.63;18.55;;;;;;;;;;5051500;28;20053;-67
2022/11/30 00:02:48;;;;;;;35.72;18.70;;;;;;;;;;5051110;28;20052;-67
2022/11/30 00:05:14;;;;;;;36.72;19.10;;;;;;;;;;5051345;28;20052;-67
2022/11/30 00:07:40;;;;;;;34.10;17.80;;;;;;;;;;5048884;28;20041;-67
2022/11/30 00:10:07;;;;;;;32.58;18.05;;;;;;;;;;5051196;28;20037;-67
2022/11/30 00:12:33;;;;;;;34.58;18.77;;;;;;;;;;5035054;28;20075;-67
2022/11/30 00:14:59;;;;;;;36.30;18.60;;;;;;;;;;5051397;28;20074;-67
2022/11/30 00:17:25;;;;;;;29.70;17.13;;;;;;;;;;5051054;28;20052;-67
2022/11/30 00:19:51;;;;;;;32.67;17.67;;;;;;;;;;5050799;28;20037;-67
2022/11/30 00:22:17;;;;;;;31.67;17.58;;;;;;;;;;5034772;28;20414;-67
2022/11/30 00:24:43;;;;;;;33.17;18.73;;;;;;;;;;5050932;28;20028;-67
2022/11/30 00:27:09;;;;;;;36.25;19.73;;;;;;;;;;5050920;28;20029;-67
2022/11/30 00:29:35;;;;;;;35.47;17.63;;;;;;;;;;5050930;28;20040;-67
2022/11/30 00:32:01;;;;;;;38.17;19.48;;;;;;;;;;5050805;28;20045;-67
2022/11/30 00:34:27;;;;;;;39.00;18.38;;;;;;;;;;5050830;28;20473;-67
2022/11/30 00:36:54;;;;;;;34.00;18.80;;;;;;;;;;5051048;28;20036;-68
2022/11/30 00:39:20;;;;;;;32.95;19.00;;;;;;;;;;5034120;28;20051;-67
2022/11/30 00:41:47;;;;;;;36.25;19.88;;;;;;;;;;5051267;28;20037;-68
2022/11/30 00:44:13;;;;;;;39.42;20.50;;;;;;;;;;5050627;28;20064;-67
2022/11/30 00:46:39;;;;;;;36.03;18.48;;;;;;;;;;5048339;28;20041;-67
2022/11/30 00:49:05;;;;;;;33.83;18.27;;;;;;;;;;5050554;28;20440;-67
2022/11/30 00:51:31;;;;;;;33.65;17.85;;;;;;;;;;5050518;28;20473;-67
2022/11/30 00:53:57;;;;;;;35.10;18.80;;;;;;;;;;5051461;28;20037;-67
2022/11/30 00:56:23;;;;;;;35.42;18.67;;;;;;;;;;5057675;28;20301;-67
2022/11/30 00:58:49;;;;;;;33.08;17.85;;;;;;;;;;5057413;28;20037;-67
2022/11/30 01:01:15;;;;;;;31.70;16.73;;;;;;;;;;5057252;28;20080;-67
2022/11/30 01:03:41;;;;;;;31.23;17.40;;;;;;;;;;5040539;28;20128;-67
2022/11/30 01:06:08;;;;;;;37.58;19.40;;;;;;;;;;5040585;28;20389;-67
2022/11/30 01:08:35;;;;;;;34.97;18.75;;;;;;;;;;5057000;28;20530;-67
2022/11/30 01:11:20;;;;;;;32.63;18.38;;;;;;;;;;5056952;28;20506;-68
2022/11/30 01:13:46;;;;;;;33.08;17.65;;;;;;;;;;5057059;28;20435;-67
2022/11/30 01:16:14;;;;;;;34.05;17.50;;;;;;;;;;5058366;28;20161;-67
2022/11/30 01:18:41;;;;;;;32.97;18.05;;;;;;;;;;5057006;28;20044;-67
2022/11/30 01:21:08;;;;;;;35.10;18.85;;;;;;;;;;5057415;28;20068;-67
2022/11/30 01:23:35;;;;;;;41.20;20.52;;;;;;;;;;5040480;28;20044;-67
2022/11/30 01:26:01;;;;;;;35.20;18.85;;;;;;;;;;5057133;28;20044;-68
2022/11/30 01:28:27;;;;;;;33.65;18.50;;;;;;;;;;5040211;28;20056;-67
2022/11/30 01:30:57;;;;;;;34.70;18.40;;;;;;;;;;5057030;28;20526;-68
2022/11/30 01:33:23;;;;;;;34.20;17.70;;;;;;;;;;5057217;28;20033;-68
2022/11/30 01:35:57;;;;;;;31.38;18.23;;;;;;;;;;5056822;28;20134;-69
2022/11/30 01:38:23;;;;;;;36.67;18.65;;;;;;;;;;5056953;28;21479;-67
2022/11/30 01:40:50;;;;;;;40.70;20.27;;;;;;;;;;5040364;28;20147;-68
2022/11/30 01:43:17;;;;;;;32.20;17.50;;;;;;;;;;5040360;28;20037;-67
2022/11/30 01:45:43;;;;;;;34.15;18.98;;;;;;;;;;5057209;28;20062;-67
2022/11/30 01:48:09;;;;;;;34.55;18.10;;;;;;;;;;5089715;28;20037;-67
2022/11/30 01:50:36;;;;;;;36.15;19.40;;;;;;;;;;5056905;28;20166;-68
2022/11/30 01:53:04;;;;;;;34.55;18.02;;;;;;;;;;5056837;28;20397;-67
2022/11/30 01:55:43;;;;;;;36.40;18.10;;;;;;;;;;5056671;28;20037;-67
2022/11/30 01:58:11;;;;;;;31.75;16.98;;;;;;;;;;5056839;28;20511;-67
2022/11/30 02:00:39;;;;;;;29.00;16.67;;;;;;;;;;5056499;28;20049;-68
2022/11/30 02:03:23;;;;;;;30.35;16.05;;;5.50;99.90;;;;;;5056807;28;20052;-67
2022/11/30 02:05:49;;;;;;;30.77;15.93;;;;;;;;;;5054878;28;20044;-71
2022/11/30 02:08:16;;;;;;;32.78;15.68;;;;;;;;;;5053150;28;20040;-71
2022/11/30 02:10:44;;;;;;;32.25;16.75;;;;;;;;;;5053370;28;20037;-71
2022/11/30 02:13:33;;;;;;;27.58;15.52;;;;;;;;;;5053582;28;20037;-71
2022/11/30 02:16:18;;;;;;;28.33;16.02;;;;;;;;;;5037016;28;20076;-71
2022/11/30 02:19:02;;;;;;;29.85;15.82;;;;;;;;;;5053598;28;20103;-72
2022/11/30 02:21:28;;;;;;;27.10;15.30;;;;;;;;;;5053474;28;20490;-69
2022/11/30 02:24:03;;;;;;;28.50;16.83;;;;;;;;;;5054144;28;20497;-70
2022/11/30 02:26:39;;;;;;;29.73;16.92;;;;;;;;;;5053328;28;20037;-70
2022/11/30 02:29:24;;;;;;;29.02;16.05;;;;;;;;;;5035511;28;20492;-71
2022/11/30 02:32:08;;;;;;;33.63;17.88;;;;;;;;;;5053160;28;20044;-71
2022/11/30 02:34:36;;;;;;;32.25;17.48;;;;;;;;;;5053475;28;20055;-70
2022/11/30 02:37:02;;;;;;;33.28;16.67;;;;;;;;;;5053018;28;20036;-70
2022/11/30 02:39:28;;;;;;;29.10;16.27;;;;;;;;;;5053360;28;20033;-70
2022/11/30 02:41:55;;;;;;;28.08;15.48;;;;;;;;;;5052746;28;20040;-69
2022/11/30 02:44:21;;;;;;;34.10;18.00;;;;;;;;;;5052573;28;20511;-70
2022/11/30 02:46:53;;;;;;;34.30;17.92;;;;;;;;;;5052858;28;20048;-70
2022/11/30 02:49:26;;;;;;;33.58;17.77;;;;;;;;;;5052784;28;20044;-70
2022/11/30 02:51:53;;;;;;;34.83;18.95;;;;;;;;;;5052303;28;20075;-71
2022/11/30 02:54:19;;;;;;;35.88;19.75;;;;;;;;;;5050290;28;20197;-71
2022/11/30 02:56:45;;;;;;;35.40;19.80;;;;;;;;;;5053119;28;20413;-71
2022/11/30 02:59:11;;;;;;;36.50;18.23;;;;;;;;;;5036097;28;20476;-71
2022/11/30 03:01:38;;;;;;;34.00;18.08;;;;;;;;;;5052373;28;20495;-70
2022/11/30 03:04:05;;;;;;;37.50;18.95;;;;;;;;;;5052362;28;20098;-70
2022/11/30 03:06:31;;;;;;;36.17;18.88;;;;;;;;;;5052720;28;20068;-70
2022/11/30 03:08:57;;;;;;;40.53;21.02;;;;;;;;;;5035857;28;20037;-70
2022/11/30 03:11:24;;;;;;;40.17;20.70;;;;;;;;;;5052105;28;20076;-70
2022/11/30 03:13:50;;;;;;;37.78;19.75;;;;;;;;;;5051948;28;20039;-71
2022/11/30 03:16:16;;;;;;;42.97;21.08;;;;;;;;;;5052027;28;20033;-70
2022/11/30 03:18:43;;;;;;;36.28;19.95;;;;;;;;;;5053078;28;20064;-70
2022/11/30 03:21:10;;;;;;;40.15;19.20;;;;;;;;;;5052121;28;20091;-70
2022/11/30 03:23:36;;;;;;;41.33;20.35;;;;;;;;;;5052325;28;20044;-70
2022/11/30 03:26:03;;;;;;;39.20;20.67;;;;;;;;;;5035570;28;20056;-70
2022/11/30 03:28:29;;;;;;;47.33;22.50;;;;;;;;;;5049469;28;20037;-70
2022/11/30 03:30:56;;;;;;;50.10;22.63;;;;;;;;;;5051777;28;20037;-71
2022/11/30 03:33:22;;;;;;;44.22;20.98;;;;;;;;;;5035522;28;20372;-70
2022/11/30 03:35:48;;;;;;;42.40;20.88;;;;;;;;;;5035280;28;20446;-69
2022/11/30 03:38:14;;;;;;;47.22;22.40;;;;;;;;;;5053301;28;20048;-70
2022/11/30 03:40:40;;;;;;;42.00;21.38;;;;;;;;;;5047704;28;20512;-70
2022/11/30 03:43:06;;;;;;;41.58;20.50;;;;;;;;;;5051811;28;20049;-70
2022/11/30 03:45:32;;;;;;;37.63;19.15;;;;;;;;;;5034776;28;20036;-70
2022/11/30 03:47:59;;;;;;;44.45;20.27;;;;;;;;;;5033989;28;20500;-70
2022/11/30 03:50:25;;;;;;;50.88;21.23;;;;;;;;;;5047830;28;20049;-70
2022/11/30 03:52:51;;;;;;;46.08;22.83;;;;;;;;;;5016008;28;20072;-70
2022/11/30 03:55:17;;;;;;;43.30;20.42;;;;;;;;;;5051825;28;20095;-70
2022/11/30 03:57:43;;;;;;;40.63;20.30;;;;;;;;;;5051823;28;20045;-70
2022/11/30 04:00:09;;;;;;;37.45;19.15;;;;;;;;;;5034942;28;20040;-70
2022/11/30 04:02:35;;;;;;;40.55;19.73;;;;;;;;;;5034348;28;20528;-70
2022/11/30 04:05:01;;;;;;;42.97;21.50;;;;;;;;;;5034656;28;20037;-70
2022/11/30 04:07:27;;;;;;;37.05;18.73;;;;;;;;;;5034399;28;20124;-70
2022/11/30 04:09:53;;;;;;;35.83;18.45;;;;;;;;;;5052417;28;20048;-69
2022/11/30 04:12:19;;;;;;;39.75;19.10;;;;;;;;;;5034636;28;20059;-69
2022/11/30 04:14:45;;;;;;;39.53;19.77;;;;;;;;;;5050812;28;20072;-69
2022/11/30 04:17:11;;;;;;;32.85;17.48;;;;;;;;;;5051280;28;20504;-69
2022/11/30 04:19:37;;;;;;;39.97;19.00;;;;;;;;;;5034854;28;20423;-69
2022/11/30 04:22:03;;;;;;;35.95;17.35;;;;;;;;;;5034875;28;20088;-69
2022/11/30 04:24:29;;;;;;;31.50;17.10;;;;;;;;;;5051294;28;20044;-71
2022/11/30 04:26:55;;;;;;;37.90;18.10;;;;;;;;;;5034326;28;20089;-70
2022/11/30 04:29:22;;;;;;;32.30;17.77;;;;;;;;;;5050312;28;20048;-70
2022/11/30 04:31:48;;;;;;;33.67;17.98;;;;;;;;;;5050788;28;20507;-70
2022/11/30 04:34:14;;;;;;;35.25;17.45;;;;;;;;;;5034380;28;20226;-69
2022/11/30 04:36:40;;;;;;;35.40;17.77;;;;;;;;;;5051019;28;20041;-69
2022/11/30 04:39:06;;;;;;;31.50;17.23;;;;;;;;;;5050772;28;20039;-69
2022/11/30 04:41:32;;;;;;;33.85;17.23;;;;;;;;;;5050924;28;20052;-70
2022/11/30 04:43:58;;;;;;;43.22;16.88;;;;;;;;;;5034113;28;20055;-70
2022/11/30 04:46:24;;;;;;;31.85;15.68;;;;;;;;;;5050614;28;20067;-70
2022/11/30 04:48:50;;;;;;;28.42;14.70;;;;;;;;;;5050765;28;20087;-70
2022/11/30 04:51:16;;;;;;;27.55;14.45;;;;;;;;;;5016794;28;20140;-70
2022/11/30 04:53:42;;;;;;;25.83;13.25;;;;;;;;;;5050249;28;20041;-70
2022/11/30 04:56:09;;;;;;;30.17;12.63;;;;;;;;;;5053434;28;20045;-70
2022/11/30 04:58:36;;;;;;;23.08;12.18;;;;;;;;;;5050973;28;20068;-70
2022/11/30 05:01:02;;;;;;;32.85;11.85;;;;;;;;;;5050491;28;20435;-70
2022/11/30 05:03:28;;;;;;;22.75;12.88;;;;;;;;;;5051065;28;20053;-70
2022/11/30 05:05:54;;;;;;;22.08;11.05;;;;;;;;;;5051480;28;20083;-70
2022/11/30 05:08:20;;;;;;;21.67;11.93;;;;;;;;;;5051704;28;20040;-70
2022/11/30 05:10:50;;;;;;;23.58;11.57;;;;;;;;;;5051638;28;20045;-70
2022/11/30 05:13:16;;;;;;;55.20;12.30;;;;;;;;;;5051857;28;20041;-70
2022/11/30 05:15:42;;;;;;;28.10;12.38;;;;;;;;;;5051870;28;20079;-70
2022/11/30 05:18:08;;;;;;;23.25;12.10;;;;;;;;;;5018644;28;20068;-70
2022/11/30 05:20:34;;;;;;;22.10;11.75;;;;;;;;;;5052725;28;20106;-70
2022/11/30 05:23:00;;;;;;;19.00;11.23;;;;;;;;;;5035252;28;20045;-71
2022/11/30 05:25:27;;;;;;;39.50;12.75;;;;;;;;;;5051515;28;20095;-70
2022/11/30 05:27:53;;;;;;;22.20;11.32;;;;;;;;;;5051785;28;20144;-70
2022/11/30 05:30:19;;;;;;;21.27;11.55;;;;;;;;;;5051365;28;20060;-70
2022/11/30 05:32:45;;;;;;;20.92;12.15;;;;;;;;;;5051620;28;20037;-70
2022/11/30 05:35:11;;;;;;;22.13;11.73;;;;;;;;;;5051629;28;20393;-70
2022/11/30 05:37:37;;;;;;;22.55;11.57;;;;;;;;;;5052710;28;20048;-71
2022/11/30 05:40:03;;;;;;;20.27;11.52;;;;;;;;;;5051537;28;20432;-69
2022/11/30 05:42:30;;;;;;;26.58;14.02;;;;;;;;;;5053068;28;20037;-69
2022/11/30 05:44:56;;;;;;;29.98;14.77;;;;;;;;;;5054384;28;20063;-70
2022/11/30 05:47:22;;;;;;;27.00;13.02;;;;;;;;;;5054314;28;20056;-70
2022/11/30 05:49:48;;;;;;;25.90;13.02;;;;;;;;;;5054107;28;20044;-70
2022/11/30 05:52:14;;;;;;;24.10;12.35;;;;;;;;;;5053788;28;20045;-70
2022/11/30 05:54:40;;;;;;;21.95;12.98;;;;;;;;;;5053869;28;20037;-70
2022/11/30 05:57:06;;;;;;;26.85;14.13;;;;;;;;;;5053565;28;20091;-70
2022/11/30 05:59:32;;;;;;;25.30;13.88;;;;;;;;;;5053826;28;20079;-70
2022/11/30 06:01:58;;;;;;;23.48;13.15;;;;;;;;;;5053818;28;20550;-70
2022/11/30 06:04:24;;;;;;;25.98;13.60;;;;;;;;;;5054870;28;20037;-71
2022/11/30 06:06:54;;;;;;;24.10;14.23;;;;;;;;;;5038045;28;20129;-70
2022/11/30 06:09:20;;;;;;;23.63;12.98;;;;;;;;;;5054724;28;20045;-70
2022/11/30 06:11:46;;;;;;;25.65;13.63;;;;;;;;;;5037925;28;20052;-70
2022/11/30 06:14:12;;;;;;;25.13;13.85;;;;;;;;;;5054668;28;20481;-70
2022/11/30 06:16:39;;;;;;;26.17;13.32;;;;;;;;;;5054832;28;20037;-71
2022/11/30 06:19:05;;;;;;;25.05;12.40;;;;;;;;;;5037936;28;20052;-71
2022/11/30 06:21:31;;;;;;;24.80;13.20;;;;;;;;;;5054591;28;20045;-70
2022/11/30 06:23:57;;;;;;;24.65;13.88;;;;;;;;;;5054549;28;20052;-70
2022/11/30 06:26:23;;;;;;;23.58;13.07;;;;;;;;;;5054395;28;20051;-70
2022/11/30 06:28:49;;;;;;;27.50;12.90;;;;;;;;;;5053397;28;20338;-70
2022/11/30 06:31:16;;;;;;;27.05;13.95;;;;;;;;;;5053411;28;20037;-71
2022/11/30 06:33:42;;;;;;;27.27;13.10;;;;;;;;;;5053312;28;20436;-70
2022/11/30 06:36:08;;;;;;;27.48;14.70;;;;;;;;;;5053513;28;20052;-70
2022/11/30 06:38:34;;;;;;;26.40;14.13;;;;;;;;;;5053011;28;20123;-70
2022/11/30 06:41:08;;;;;;;30.85;14.00;;;;;;;;;;5033888;28;20032;-70
2022/11/30 06:43:37;;;;;;;26.27;13.65;;;;;;;;;;5052692;28;20041;-70
2022/11/30 06:46:03;;;;;;;27.58;14.68;;;;;;;;;;5053252;28;20040;-70
2022/11/30 06:48:30;;;;;;;25.90;13.38;;;;;;;;;;5053697;28;20056;-70
2022/11/30 06:50:56;;;;;;;27.80;14.10;;;;;;;;;;5062020;28;20037;-71
2022/11/30 06:53:22;;;;;;;28.88;14.32;;;;;;;;;;5059851;28;20396;-69
2022/11/30 06:55:48;;;;;;;26.95;13.73;;;;;;;;;;5060038;28;20049;-70
2022/11/30 06:58:14;;;;;;;28.90;13.77;;;;;;;;;;5042525;28;20033;-69
2022/11/30 07:00:41;;;;;;;26.80;13.85;;;;;;;;;;5063720;28;20055;-71
2022/11/30 07:03:10;;;;;;;26.20;13.40;;;;;;;;;;5062493;28;20053;-70
2022/11/30 07:05:41;;;;;;;24.50;13.30;;;;;;;;;;5064010;28;20049;-70
2022/11/30 07:08:07;;;;;;;26.20;13.48;;;;;;;;;;5055544;28;20044;-70
2022/11/30 07:10:33;;;;;;;27.38;14.57;;;;;;;;;;5056320;28;20098;-69
2022/11/30 07:13:00;;;;;;;27.70;13.77;;;;;;;;;;5054622;28;20040;-70
2022/11/30 07:15:26;;;;;;;26.80;13.65;;;;;;;;;;5052191;28;20064;-70
2022/11/30 07:17:52;;;;;;;29.67;13.18;;;;;;;;;;5051949;28;20033;-70
2022/11/30 07:20:18;;;;;;;28.40;14.70;;;;;;;;;;5052384;28;20041;-70
2022/11/30 07:22:44;;;;;;;30.98;14.25;;;;;;;;;;5035566;28;20733;-70
2022/11/30 07:27:54;;;;;;;28.55;13.98;;;;;;;;;;5052249;28;20040;-70
2022/11/30 07:30:21;;;;;;;30.52;14.05;;;;;;;;;;5051471;28;20037;-70
2022/11/30 07:32:47;;;;;;;27.55;15.30;;;;;;;;;;5051635;28;20029;-70
2022/11/30 07:35:13;;;;;;;31.85;14.88;;;;;;;;;;5051241;28;20041;-70
2022/11/30 07:37:39;;;;;;;30.98;15.57;;;;;;;;;;5051134;28;20500;-70
2022/11/30 07:40:05;;;;;;;29.13;14.88;;;;;;;;;;5050559;28;20442;-70
2022/11/30 07:42:31;;;;;;;32.50;16.20;;;;;;;;;;5058119;28;20033;-70
2022/11/30 07:44:57;;;;;;;33.47;16.63;;;;;;;;;;5051317;28;20080;-70
2022/11/30 07:47:23;;;;;;;42.40;20.50;;;;;;;;;;5051133;28;20041;-70
2022/11/30 07:49:49;;;;;;;37.47;20.33;;;;;;;;;;5051396;28;20069;-70
2022/11/30 07:52:15;;;;;;;33.13;16.95;;;;;;;;;;5050702;28;20112;-67
2022/11/30 07:54:41;;;;;;;29.50;17.20;;;;;;;;;;5051196;28;20083;-68
2022/11/30 07:57:08;;;;;;;37.80;19.42;;;;;;;;;;5034432;28;20532;-66
2022/11/30 07:59:34;;;;;;;38.53;18.20;;;;;;;;;;5033914;28;20032;-67
2022/11/30 08:02:00;;;;;;;44.33;19.67;;;;;;;;;;5013676;28;20060;-67
2022/11/30 08:04:26;;;;;;;50.00;22.60;;;;;;;;;;5049234;28;20052;-66
2022/11/30 08:06:53;;;;;;;48.33;21.00;;;;;;;;;;5034087;28;20072;-67
2022/11/30 08:09:19;;;;;;;44.83;21.30;;;;;;;;;;5052151;28;20501;-67
2022/11/30 08:11:45;;;;;;;44.80;20.65;;;;;;;;;;5050343;28;20060;-67
2022/11/30 08:14:12;;;;;;;49.75;23.42;;;;;;;;;;5051009;28;20033;-67
2022/11/30 08:16:38;;;;;;;54.65;25.40;;;;;;;;;;5050614;28;20051;-67
2022/11/30 08:19:04;;;;;;;51.13;22.88;;;;;;;;;;5050286;28;20477;-67
2022/11/30 08:21:31;;;;;;;55.70;23.02;;;;;;;;;;5034150;28;20045;-67
2022/11/30 08:23:57;;;;;;;47.95;22.42;;;;;;;;;;5034029;28;20041;-67
2022/11/30 08:26:27;;;;;;;54.33;22.67;;;;;;;;;;5050776;28;20060;-67
2022/11/30 08:28:54;;;;;;;55.33;23.75;;;;;;;;;;5050465;28;20508;-67
2022/11/30 08:31:30;;;;;;;59.65;24.85;;;;;;;;;;5050332;28;20118;-67
2022/11/30 08:33:57;;;;;;;60.30;25.05;;;;;;;;;;5050461;28;20087;-67
2022/11/30 08:36:24;;;;;;;52.88;23.42;;;;;;;;;;5050319;28;20486;-67
2022/11/30 08:38:50;;;;;;;59.72;25.23;;;;;;;;;;5052061;28;20047;-66
2022/11/30 08:41:20;;;;;;;58.15;23.50;;;;;;;;;;5051825;28;20041;-67
2022/11/30 08:43:47;;;;;;;57.50;23.67;;;;;;;;;;5051907;28;20334;-67
2022/11/30 08:46:14;;;;;;;53.83;23.17;;;;;;;;;;5051606;28;20048;-67
2022/11/30 08:48:40;;;;;;;52.80;23.55;;;;;;;;;;5051947;28;20048;-66
2022/11/30 08:51:09;;;;;;;49.17;23.45;;;;;;;;;;5051646;28;20053;-67
2022/11/30 08:53:35;;;;;;;60.45;24.17;;;;;;;;;;5051899;28;20389;-66
2022/11/30 08:56:03;;;;;;;55.00;23.55;;;;;;;;;;5035084;28;20048;-67
2022/11/30 08:58:30;;;;;;;52.88;23.42;;;;;;;;;;5051547;28;20041;-67
2022/11/30 09:01:04;;;;;;;47.70;22.48;;;;;;;;;;5051518;28;20041;-67
2022/11/30 09:03:31;;;;;;;50.75;22.20;;;;;;;;;;5051582;28;20521;-67
2022/11/30 09:06:02;;;;;;;54.70;22.70;;;;;;;;;;5035185;28;20049;-67
2022/11/30 09:08:28;;;;;;;53.30;25.70;;;;;;;;;;5052662;28;20549;-66
2022/11/30 09:10:54;;;;;;;59.97;25.05;;;;;;;;;;5051619;28;20311;-67
2022/11/30 09:13:20;;;;;;;67.10;26.38;;;;;;;;;;5051671;28;20036;-67
2022/11/30 09:15:53;;;;;;;56.35;24.38;;;;;;;;;;5052782;28;20098;-67
2022/11/30 09:18:19;;;;;;;;;;;;;;;;;;5056204;28;20127;-67
2022/11/30 09:20:45;;;;;;;62.92;26.20;;;;;;;;;;5055433;28;20003;-67
2022/11/30 09:23:11;;;;;;;66.00;27.90;;;;;;;;;;5055407;28;20493;-67
2022/11/30 09:25:37;;;;;;;67.35;27.20;;;;;;;;;;5055804;28;20424;-67
2022/11/30 09:28:03;;;;;;;63.50;26.25;;;;;;;;;;5055563;28;20048;-67
2022/11/30 09:30:29;;;;;;;64.78;28.00;;;;;;;;;;5038966;28;20103;-67
2022/11/30 09:32:56;;;;;;;70.95;27.63;;;;;;;;;;5055522;28;20045;-67
2022/11/30 09:35:22;;;;;;;65.65;26.48;;;;;;;;;;5055346;28;20047;-66
2022/11/30 09:37:48;;;;;;;62.28;26.88;;;;;;;;;;5055187;28;20041;-66
2022/11/30 09:40:14;;;;;;;66.00;26.42;;;;;;;;;;5055184;28;20127;-66
2022/11/30 09:42:43;;;;;;;63.05;27.25;;;;;;;;;;5055074;28;20078;-66
2022/11/30 09:45:21;;;;;;;70.82;29.35;;;;;;;;;;5038657;28;20045;-67
2022/11/30 09:48:04;;;;;;;69.75;27.50;;;;;;;;;;5054985;28;20040;-67
2022/11/30 09:50:33;;;;;;;;;;;5.80;99.90;;;;;;5055198;28;20517;-66
2022/11/30 09:53:03;;;;;;;63.88;27.10;;;;;;;;;;5055991;28;20361;-67
2022/11/30 09:55:31;;;;;;;73.30;27.95;;;;;;;;;;5054730;28;20037;-67
2022/11/30 09:58:00;;;;;;;81.22;31.02;;;;;;;;;;5054679;28;20400;-67
2022/11/30 10:00:27;;;;;;;81.75;29.40;;;;;;;;;;5056137;28;20128;-67
2022/11/30 10:02:54;;;;;;;85.85;31.33;;;;;;;;;;5021663;28;20096;-67
2022/11/30 10:05:22;;;;;;;87.18;32.72;;;;;;;;;;5054611;28;20048;-67
2022/11/30 10:08:07;;;;;;;83.20;32.22;;;;;;;;;;5054747;28;20055;-67
2022/11/30 10:10:42;;;;;;;94.57;32.97;;;;;;;;;;5054651;28;20123;-67
2022/11/30 10:13:14;;;;;;;87.95;31.02;;;;;;;;;;5054380;28;20046;-67
2022/11/30 10:15:40;;;;;;;;;;;;;;;;;;5055106;28;20033;-67
2022/11/30 10:18:17;;;;;;;81.50;29.30;;;;;;;;;;5054400;28;20430;-67
2022/11/30 10:21:06;;;;;;;91.35;32.08;;;;;;;;;;5054405;28;20079;-71
2022/11/30 10:23:52;;;;;;;89.13;32.17;;;;;;;;;;5053620;28;20045;-67
2022/11/30 10:26:45;;;;;;;91.43;31.95;;;;;;;;;;5037052;28;20422;-67
2022/11/30 10:29:17;;;;;;;84.63;31.13;;;;;;;;;;5052973;28;20044;-67
2022/11/30 10:31:44;;;;;;;79.25;30.00;;;;;;;;;;5076321;28;20122;-67
2022/11/30 10:34:30;;;;;;;81.18;28.80;;;;;;;;;;5053520;28;20029;-67
2022/11/30 10:37:02;;;;;;;80.55;29.60;;;;;;;;;;5051158;28;20491;-67
2022/11/30 10:39:38;;;;;;;82.40;29.35;;;;;;;;;;5036578;28;20067;-67
2022/11/30 10:42:09;;;;;;;77.32;28.98;;;;;;;;;;5035795;28;20186;-69
2022/11/30 10:44:38;;;;;;;81.50;28.33;;;;;;;;;;5053602;28;20037;-69
2022/11/30 10:47:10;;;;;;;75.57;28.95;;;;;;;;;;5053095;28;20055;-69
2022/11/30 10:49:38;;;;;;;78.40;29.80;;;;;;;;;;5052993;28;20041;-69
2022/11/30 10:52:06;;;;;;;79.20;29.48;;;;;;;;;;5054090;28;20601;-70
2022/11/30 10:54:34;;;;;;;84.57;31.45;;;;;;;;;;5074317;28;20033;-70
2022/11/30 10:57:01;;;;;;;84.00;30.08;;;;;;;;;;5035178;28;20033;-70
2022/11/30 10:59:38;;;;;;;88.18;30.75;;;;;;;;;;5053111;28;20029;-70
2022/11/30 11:02:24;;;;;;;85.00;31.92;;;;;;;;;;5053264;28;20061;-70
2022/11/30 11:05:07;;;;;;;77.13;31.48;;;;;;;;;;5051996;28;20045;-70
2022/11/30 11:07:33;;;;;;;82.95;30.98;;;;;;;;;;5050997;28;20044;-70
2022/11/30 11:10:01;;;;;;;69.55;28.50;;;;;;;;;;5052451;28;20033;-70
2022/11/30 11:12:29;;;;;;;73.88;29.13;;;;;;;;;;5033315;28;20036;-70
2022/11/30 11:15:09;;;;;;;85.35;32.13;;;;;;;;;;5052682;28;20033;-70
2022/11/30 11:17:35;;;;;;;80.65;29.48;;;;;;;;;;5050448;28;20041;-70
2022/11/30 11:20:01;;;;;;;72.88;29.85;;;;;;;;;;5052836;28;20622;-70
2022/11/30 11:22:29;;;;;;;80.72;31.55;;;;;;;;;;5035715;28;20048;-67
2022/11/30 11:25:07;;;;;;;73.68;27.85;;;;;;;;;;5052852;28;20129;-71
2022/11/30 11:27:33;;;;;;;83.63;32.67;;;;;;;;;;5053542;28;20044;-67
2022/11/30 11:30:02;;;;;;;88.20;32.42;;;;;;;;;;5052738;28;20508;-67
2022/11/30 11:32:29;;;;;;;80.30;30.42;;;;;;;;;;5052694;28;20045;-67
2022/11/30 11:34:56;;;;;;;83.30;29.02;;;;;;;;;;5053093;28;20044;-67
2022/11/30 11:37:27;;;;;;;83.43;29.55;;;;;;;;;;5035963;28;20158;-67
2022/11/30 11:39:57;;;;;;;83.22;30.58;;;;;;;;;;5052734;28;20076;-67
2022/11/30 11:42:23;;;;;;;78.95;31.98;;;;;;;;;;5052547;28;20098;-67
2022/11/30 11:44:51;;;;;;;71.68;30.67;;;;;;;;;;5052814;28;20041;-67
2022/11/30 11:47:25;;;;;;;78.28;30.73;;;;;;;;;;5052505;28;20131;-67
2022/11/30 11:50:02;;;;;;;76.45;30.30;;;;;;;;;;5052598;28;20465;-66
2022/11/30 11:52:28;;;;;;;86.35;31.35;;;;;;;;;;5052955;28;20047;-67
2022/11/30 11:55:13;;;;;;;86.00;30.20;;;;;;;;;;5052696;28;20098;-67
2022/11/30 11:57:47;;;;;;;80.57;30.70;;;;;;;;;;5052457;28;20041;-66
2022/11/30 12:00:14;;;;;;;80.38;31.23;;;;;;;;;;5053386;28;20091;-67
2022/11/30 12:02:40;;;;;;;80.05;29.67;;;;;;;;;;5052274;28;20110;-67
2022/11/30 12:05:33;;;;;;;77.57;29.80;;;;;;;;;;5052166;28;20048;-67
2022/11/30 12:08:06;;;;;;;74.78;29.48;;;;;;;;;;5050373;28;20044;-67
2022/11/30 12:10:35;;;;;;;74.72;29.55;;;;;;;;;;5052886;28;20057;-67
2022/11/30 12:13:01;;;;;;;81.05;31.20;;;;;;;;;;5052183;28;20076;-67
2022/11/30 12:15:32;;;;;;;84.00;31.55;;;;;;;;;;5051740;28;20045;-67
2022/11/30 12:18:01;;;;;;;79.78;30.80;;;;;;;;;;5052160;28;20119;-67
2022/11/30 12:20:29;;;;;;;76.85;31.02;;;;;;;;;;5051582;28;20072;-67
2022/11/30 12:23:07;;;;;;;85.53;31.85;;;;;;;;;;5053122;28;20432;-67
2022/11/30 12:25:35;;;;;;;88.68;31.98;;;;;;;;;;5053174;28;20037;-67
2022/11/30 12:28:04;;;;;;;78.80;30.13;;;;;;;;;;5035264;28;20136;-67
2022/11/30 12:30:47;;;;;;;79.47;30.02;;;;;;;;;;5051603;28;20045;-67
2022/11/30 12:33:13;;;;;;;75.53;32.05;;;;;;;;;;5065251;28;20441;-67
2022/11/30 12:35:45;;;;;;;74.28;31.42;;;;;;;;;;5015594;28;20033;-67
2022/11/30 12:38:20;;;;;;;78.33;31.33;;;;;;;;;;5084439;28;20531;-67
2022/11/30 12:40:56;;;;;;;76.55;31.95;;;;;;;;;;5051376;28;20095;-67
2022/11/30 12:43:42;;;;;;;79.35;30.83;;;;;;;;;;5051767;28;20133;-67
2022/11/30 12:46:08;;;;;;;81.72;31.05;;;;;;;;;;5011932;28;20087;-67
2022/11/30 12:48:49;;;;;;;77.38;31.60;;;;;;;;;;5035407;28;20103;-67
2022/11/30 12:51:15;;;;;;;72.88;31.00;;;;;;;;;;5050968;28;20045;-67
2022/11/30 12:53:44;;;;;;;79.70;30.50;;;;;;;;;;5031744;28;20067;-67
2022/11/30 12:56:26;;;;;;;78.80;31.50;;;;;;;;;;5033801;28;20049;-67
2022/11/30 12:59:16;;;;;;;84.80;33.33;;;;;;;;;;5014228;28;20045;-67
2022/11/30 13:02:01;;;;;;;82.95;30.25;;;;;;;;;;5030451;28;20061;-67
2022/11/30 13:04:40;;;;;;;79.25;31.42;;;;;;;;;;5050937;28;20064;-67
2022/11/30 13:07:10;;;;;;;81.72;32.47;;;;;;;;;;5071367;28;20041;-67
2022/11/30 13:09:51;;;;;;;80.07;30.92;;;;;;;;;;5051472;28;20049;-67
2022/11/30 13:12:25;;;;;;;81.22;33.17;;;;;;;;;;5051398;28;20033;-67
2022/11/30 13:14:54;;;;;;;81.68;31.88;;;;;;;;;;5051588;28;20040;-67
2022/11/30 13:17:22;;;;;;;77.03;31.40;;;;;;;;;;5051870;28;20055;-67
2022/11/30 13:20:07;;;;;;;79.03;31.65;;;;;;;;;;5052736;28;20037;-67
2022/11/30 13:22:36;;;;;;;82.63;32.95;;;;;;;;;;5051406;28;20374;-67
2022/11/30 13:25:32;;;;;;;77.07;31.58;;;;;;;;;;5051432;28;20051;-67
2022/11/30 13:27:58;;;;;;;93.50;33.78;;;;;;;;;;5017169;28;20132;-67
2022/11/30 13:30:43;;;;;;;86.57;35.35;;;;;;;;;;5034607;28;20041;-68
2022/11/30 13:33:27;;;;;;;84.55;32.53;;;;;;;;;;5051208;28;20045;-68
2022/11/30 13:35:54;;;;;;;86.28;33.88;;;;;;;;;;5051503;28;20041;-67
2022/11/30 13:38:20;;;;;;;88.47;34.20;;;;;;;;;;5052845;28;20087;-68
2022/11/30 13:41:16;;;;;;;89.47;35.15;;;;;;;;;;5052583;28;20043;-67
2022/11/30 13:43:46;;;;;;;87.80;35.38;;;;;;;;;;5042766;28;20045;-67
2022/11/30 13:46:20;;;;;;;104.97;38.45;;;;;;;;;;5051665;28;20048;-67
2022/11/30 13:48:46;;;;;;;87.35;36.67;;;;;;;;;;5051576;28;20067;-67
2022/11/30 13:51:13;;;;;;;106.18;37.83;;;;;;;;;;5050908;28;20485;-67
2022/11/30 13:53:40;;;;;;;97.20;39.90;;;;;;;;;;5050989;28;20037;-67
2022/11/30 13:56:07;;;;;;;108.90;39.03;;;;;;;;;;5051148;28;20045;-69
2022/11/30 13:58:34;;;;;;;105.38;39.70;;;;;;;;;;5052024;28;20550;-71
2022/11/30 14:01:18;;;;;;;115.10;39.63;;;;;;;;;;5033779;28;20041;-71
2022/11/30 14:03:45;;;;;;;94.78;38.55;;;;;;;;;;5052995;28;20187;-70
2022/11/30 14:06:38;;;;;;;104.68;37.80;;;7.10;99.90;;;;;;5055904;28;20124;-70
2022/11/30 14:09:12;;;;;;;106.10;39.30;;;;;;;;;;5052976;28;20041;-70
2022/11/30 14:11:42;;;;;;;105.00;38.25;;;;;;;;;;5049812;28;20071;-70
2022/11/30 14:14:27;;;;;;;108.20;38.97;;;;;;;;;;5054434;28;20441;-70
2022/11/30 14:16:53;;;;;;;104.63;35.58;;;;;;;;;;5037309;28;20043;-70
2022/11/30 14:19:19;;;;;;;108.05;40.05;;;;;;;;;;5053556;28;20036;-70
2022/11/30 14:21:46;;;;;;;105.85;40.67;;;;;;;;;;5036389;28;20037;-71
2022/11/30 14:24:12;;;;;;;97.22;37.80;;;;;;;;;;5054340;28;20111;-70
2022/11/30 14:26:40;;;;;;;101.90;38.38;;;;;;;;;;5054223;28;20539;-70
2022/11/30 14:29:06;;;;;;;112.15;40.00;;;;;;;;;;5054278;28;20056;-71